sensor_id;sensor_type;location;lat;lon;timestamp;P1;durP1;ratioP1;P2;durP2;ratioP2
37859;SDS011;23698;52.014;5.190;2023-05-07T05:03:21;29.20;;;23.25;;
37859;SDS011;23698;52.014;5.190;2023-05-07T05:06:09;30.00;;;23.15;;
37859;SDS011;23698;52.014;5.190;2023-05-07T05:08:56;28.17;;;23.23;;
37859;SDS011;23698;52.014;5.190;2023-05-07T05:11:44;27.30;;;22.98;;
37859;SDS011;23698;52.014;5.190;2023-05-07T05:14:30;26.02;;;21.63;;
37859;SDS011;23698;52.014;5.190;2023-05-07T08:01:29;23.98;;;19.85;;
37859;SDS011;23698;52.014;5.190;2023-05-07T08:04:17;27.00;;;20.75;;
37859;SDS011;23698;52.014;5.190;2023-05-07T08:07:04;27.98;;;21.10;;
37859;SDS011;23698;52.014;5.190;2023-05-07T08:09:53;30.30;;;23.33;;
37859;SDS011;23698;52.014;5.190;2023-05-07T08:12:42;32.17;;;22.67;;
37859;SDS011;23698;52.014;5.190;2023-05-07T08:15:28;28.88;;;23.08;;
37859;SDS011;23698;52.014;5.190;2023-05-07T08:18:17;27.67;;;22.02;;
37859;SDS011;23698;52.014;5.190;2023-05-07T08:21:03;29.17;;;22.38;;
37859;SDS011;23698;52.014;5.190;2023-05-07T08:23:50;32.17;;;22.90;;
37859;SDS011;23698;52.014;5.190;2023-05-07T08:26:37;28.98;;;21.88;;
37859;SDS011;23698;52.014;5.190;2023-05-07T08:29:25;29.58;;;23.00;;
37859;SDS011;23698;52.014;5.190;2023-05-07T08:32:12;30.40;;;23.13;;
37859;SDS011;23698;52.014;5.190;2023-05-07T08:35:00;31.55;;;22.58;;
37859;SDS011;23698;52.014;5.190;2023-05-07T08:37:46;23.88;;;19.98;;
37859;SDS011;23698;52.014;5.190;2023-05-07T08:40:36;26.90;;;20.55;;
37859;SDS011;23698;52.014;5.190;2023-05-07T08:43:27;25.55;;;19.35;;
37859;SDS011;23698;52.014;5.190;2023-05-07T08:46:16;23.15;;;17.75;;
37859;SDS011;23698;52.014;5.190;2023-05-07T08:49:04;26.33;;;18.63;;
37859;SDS011;23698;52.014;5.190;2023-05-07T08:51:52;18.48;;;15.77;;
37859;SDS011;23698;52.014;5.190;2023-05-07T08:54:39;20.77;;;15.10;;
37859;SDS011;23698;52.014;5.190;2023-05-07T08:57:27;22.85;;;16.48;;
37859;SDS011;23698;52.014;5.190;2023-05-07T09:00:22;16.63;;;13.30;;
37859;SDS011;23698;52.014;5.190;2023-05-07T09:03:16;13.63;;;11.50;;
37859;SDS011;23698;52.014;5.190;2023-05-07T09:06:06;14.95;;;8.52;;
37859;SDS011;23698;52.014;5.190;2023-05-07T09:08:54;13.00;;;10.07;;
37859;SDS011;23698;52.014;5.190;2023-05-07T09:11:46;13.55;;;11.10;;
37859;SDS011;23698;52.014;5.190;2023-05-07T09:14:36;13.38;;;10.55;;
37859;SDS011;23698;52.014;5.190;2023-05-07T09:17:22;13.30;;;10.63;;
37859;SDS011;23698;52.014;5.190;2023-05-07T09:20:09;16.02;;;11.93;;
37859;SDS011;23698;52.014;5.190;2023-05-07T09:22:57;15.85;;;11.57;;
37859;SDS011;23698;52.014;5.190;2023-05-07T09:25:46;16.00;;;11.93;;
37859;SDS011;23698;52.014;5.190;2023-05-07T09:28:39;16.10;;;12.00;;
37859;SDS011;23698;52.014;5.190;2023-05-07T09:31:28;15.80;;;11.93;;
37859;SDS011;23698;52.014;5.190;2023-05-07T09:34:15;13.95;;;12.35;;
37859;SDS011;23698;52.014;5.190;2023-05-07T09:37:04;15.10;;;10.93;;
37859;SDS011;23698;52.014;5.190;2023-05-07T09:39:52;16.30;;;12.25;;
37859;SDS011;23698;52.014;5.190;2023-05-07T09:42:42;16.40;;;11.98;;
37859;SDS011;23698;52.014;5.190;2023-05-07T09:45:29;16.00;;;12.05;;
37859;SDS011;23698;52.014;5.190;2023-05-07T09:48:17;13.18;;;11.05;;
37859;SDS011;23698;52.014;5.190;2023-05-07T09:51:10;13.15;;;10.60;;
37859;SDS011;23698;52.014;5.190;2023-05-07T09:54:02;13.45;;;10.85;;
37859;SDS011;23698;52.014;5.190;2023-05-07T09:56:53;14.10;;;11.15;;
37859;SDS011;23698;52.014;5.190;2023-05-07T09:59:45;16.30;;;12.60;;
37859;SDS011;23698;52.014;5.190;2023-05-07T10:02:35;15.82;;;12.70;;
37859;SDS011;23698;52.014;5.190;2023-05-07T10:05:23;16.10;;;13.35;;
37859;SDS011;23698;52.014;5.190;2023-05-07T10:15:37;15.95;;;12.60;;
37859;SDS011;23698;52.014;5.190;2023-05-07T10:28:18;16.45;;;12.70;;
37859;SDS011;23698;52.014;5.190;2023-05-07T10:33:01;15.73;;;13.18;;
37859;SDS011;23698;52.014;5.190;2023-05-07T10:35:55;16.58;;;13.65;;
37859;SDS011;23698;52.014;5.190;2023-05-07T10:38:45;15.05;;;11.90;;
37859;SDS011;23698;52.014;5.190;2023-05-07T10:41:33;14.05;;;12.40;;
37859;SDS011;23698;52.014;5.190;2023-05-07T10:44:25;14.75;;;13.18;;
37859;SDS011;23698;52.014;5.190;2023-05-07T10:47:15;18.35;;;13.15;;
37859;SDS011;23698;52.014;5.190;2023-05-07T10:50:22;15.43;;;11.02;;
37859;SDS011;23698;52.014;5.190;2023-05-07T10:53:20;14.23;;;10.98;;
37859;SDS011;23698;52.014;5.190;2023-05-07T10:56:24;14.68;;;10.77;;
37859;SDS011;23698;52.014;5.190;2023-05-07T11:06:10;12.65;;;9.77;;
37859;SDS011;23698;52.014;5.190;2023-05-07T11:09:35;11.52;;;9.07;;
37859;SDS011;23698;52.014;5.190;2023-05-07T11:12:52;11.80;;;10.38;;
37859;SDS011;23698;52.014;5.190;2023-05-07T11:15:46;13.13;;;10.68;;
37859;SDS011;23698;52.014;5.190;2023-05-07T11:18:46;12.23;;;9.77;;
37859;SDS011;23698;52.014;5.190;2023-05-07T11:21:42;12.60;;;9.32;;
37859;SDS011;23698;52.014;5.190;2023-05-07T11:24:58;13.25;;;9.90;;
37859;SDS011;23698;52.014;5.190;2023-05-07T11:27:45;11.82;;;9.18;;
37859;SDS011;23698;52.014;5.190;2023-05-07T11:30:33;12.65;;;9.50;;
37859;SDS011;23698;52.014;5.190;2023-05-07T11:33:23;11.70;;;10.02;;
37859;SDS011;23698;52.014;5.190;2023-05-07T11:36:11;15.30;;;9.90;;
37859;SDS011;23698;52.014;5.190;2023-05-07T11:39:04;13.30;;;9.77;;
37859;SDS011;23698;52.014;5.190;2023-05-07T11:41:52;13.48;;;9.90;;
37859;SDS011;23698;52.014;5.190;2023-05-07T11:44:41;12.55;;;9.50;;
37859;SDS011;23698;52.014;5.190;2023-05-07T11:47:30;13.75;;;9.75;;
37859;SDS011;23698;52.014;5.190;2023-05-07T11:50:17;14.57;;;9.95;;
37859;SDS011;23698;52.014;5.190;2023-05-07T11:53:07;13.35;;;9.48;;
37859;SDS011;23698;52.014;5.190;2023-05-07T11:55:55;11.40;;;9.00;;
37859;SDS011;23698;52.014;5.190;2023-05-07T11:58:42;14.90;;;9.38;;
37859;SDS011;23698;52.014;5.190;2023-05-07T12:01:29;10.25;;;9.00;;
37859;SDS011;23698;52.014;5.190;2023-05-07T12:04:19;13.38;;;7.38;;
37859;SDS011;23698;52.014;5.190;2023-05-07T12:07:10;10.25;;;7.65;;
37859;SDS011;23698;52.014;5.190;2023-05-07T12:09:57;8.77;;;6.63;;
37859;SDS011;23698;52.014;5.190;2023-05-07T12:12:46;9.75;;;6.78;;
37859;SDS011;23698;52.014;5.190;2023-05-07T12:15:34;10.43;;;5.28;;
37859;SDS011;23698;52.014;5.190;2023-05-07T12:18:21;8.95;;;5.28;;
37859;SDS011;23698;52.014;5.190;2023-05-07T12:21:07;8.80;;;5.57;;
37859;SDS011;23698;52.014;5.190;2023-05-07T12:23:54;7.53;;;4.18;;
37859;SDS011;23698;52.014;5.190;2023-05-07T12:26:41;7.75;;;5.05;;
37859;SDS011;23698;52.014;5.190;2023-05-07T12:29:28;5.85;;;3.97;;
37859;SDS011;23698;52.014;5.190;2023-05-07T12:32:15;9.25;;;4.38;;
37859;SDS011;23698;52.014;5.190;2023-05-07T12:35:03;7.85;;;4.35;;
37859;SDS011;23698;52.014;5.190;2023-05-07T12:37:54;9.07;;;5.55;;
37859;SDS011;23698;52.014;5.190;2023-05-07T12:40:41;8.35;;;5.10;;
37859;SDS011;23698;52.014;5.190;2023-05-07T12:43:29;9.95;;;6.05;;
37859;SDS011;23698;52.014;5.190;2023-05-07T12:46:17;11.35;;;6.32;;
37859;SDS011;23698;52.014;5.190;2023-05-07T12:49:04;11.70;;;6.57;;
37859;SDS011;23698;52.014;5.190;2023-05-07T12:51:50;10.75;;;5.57;;
37859;SDS011;23698;52.014;5.190;2023-05-07T12:54:37;7.50;;;4.45;;
37859;SDS011;23698;52.014;5.190;2023-05-07T12:57:24;9.07;;;4.22;;
37859;SDS011;23698;52.014;5.190;2023-05-07T13:00:11;6.05;;;4.03;;
37859;SDS011;23698;52.014;5.190;2023-05-07T13:02:59;6.32;;;3.53;;
37859;SDS011;23698;52.014;5.190;2023-05-07T13:05:46;6.25;;;3.97;;
37859;SDS011;23698;52.014;5.190;2023-05-07T13:08:33;6.72;;;3.92;;
37859;SDS011;23698;52.014;5.190;2023-05-07T13:11:22;6.73;;;3.70;;
37859;SDS011;23698;52.014;5.190;2023-05-07T13:14:08;8.05;;;4.03;;
37859;SDS011;23698;52.014;5.190;2023-05-07T13:16:55;8.77;;;4.20;;
37859;SDS011;23698;52.014;5.190;2023-05-07T13:19:42;6.75;;;4.40;;
37859;SDS011;23698;52.014;5.190;2023-05-07T13:22:28;7.70;;;4.13;;
37859;SDS011;23698;52.014;5.190;2023-05-07T13:25:15;9.55;;;5.13;;
37859;SDS011;23698;52.014;5.190;2023-05-07T13:28:02;7.32;;;5.38;;
37859;SDS011;23698;52.014;5.190;2023-05-07T13:30:55;10.10;;;5.65;;
37859;SDS011;23698;52.014;5.190;2023-05-07T13:33:42;9.00;;;5.72;;
37859;SDS011;23698;52.014;5.190;2023-05-07T13:36:30;12.05;;;6.85;;
37859;SDS011;23698;52.014;5.190;2023-05-07T13:39:19;8.77;;;6.43;;
37859;SDS011;23698;52.014;5.190;2023-05-07T13:42:05;9.75;;;5.55;;
37859;SDS011;23698;52.014;5.190;2023-05-07T13:44:54;11.82;;;6.43;;
37859;SDS011;23698;52.014;5.190;2023-05-07T13:47:45;7.78;;;5.93;;
37859;SDS011;23698;52.014;5.190;2023-05-07T13:50:34;9.63;;;7.00;;
37859;SDS011;23698;52.014;5.190;2023-05-07T13:53:28;9.23;;;7.65;;
37859;SDS011;23698;52.014;5.190;2023-05-07T13:56:22;8.95;;;6.70;;
37859;SDS011;23698;52.014;5.190;2023-05-07T13:59:20;14.52;;;7.18;;
37859;SDS011;23698;52.014;5.190;2023-05-07T14:02:06;9.23;;;6.63;;
37859;SDS011;23698;52.014;5.190;2023-05-07T14:04:54;9.13;;;6.32;;
37859;SDS011;23698;52.014;5.190;2023-05-07T14:07:40;9.32;;;6.10;;
37859;SDS011;23698;52.014;5.190;2023-05-07T14:10:28;9.20;;;6.03;;
37859;SDS011;23698;52.014;5.190;2023-05-07T14:13:15;10.32;;;6.32;;
37859;SDS011;23698;52.014;5.190;2023-05-07T14:16:02;11.93;;;6.07;;
37859;SDS011;23698;52.014;5.190;2023-05-07T14:18:49;9.80;;;6.88;;
37859;SDS011;23698;52.014;5.190;2023-05-07T14:21:36;10.15;;;6.40;;
37859;SDS011;23698;52.014;5.190;2023-05-07T14:27:51;10.82;;;8.25;;
37859;SDS011;23698;52.014;5.190;2023-05-07T14:30:38;12.35;;;8.98;;
37859;SDS011;23698;52.014;5.190;2023-05-07T14:33:25;11.93;;;9.05;;
37859;SDS011;23698;52.014;5.190;2023-05-07T14:36:11;11.88;;;9.10;;
37859;SDS011;23698;52.014;5.190;2023-05-07T14:39:05;10.82;;;8.80;;
37859;SDS011;23698;52.014;5.190;2023-05-07T14:41:51;13.68;;;8.50;;
37859;SDS011;23698;52.014;5.190;2023-05-07T14:44:40;12.82;;;8.48;;
37859;SDS011;23698;52.014;5.190;2023-05-07T14:47:27;12.55;;;8.60;;
37859;SDS011;23698;52.014;5.190;2023-05-07T14:50:13;13.50;;;9.30;;
37859;SDS011;23698;52.014;5.190;2023-05-07T14:52:59;12.65;;;9.60;;
37859;SDS011;23698;52.014;5.190;2023-05-07T14:55:46;10.30;;;6.13;;
37859;SDS011;23698;52.014;5.190;2023-05-07T14:58:33;9.43;;;5.20;;
37859;SDS011;23698;52.014;5.190;2023-05-07T15:01:21;8.32;;;5.53;;
37859;SDS011;23698;52.014;5.190;2023-05-07T15:04:08;9.77;;;5.60;;
37859;SDS011;23698;52.014;5.190;2023-05-07T15:06:54;8.10;;;5.00;;
37859;SDS011;23698;52.014;5.190;2023-05-07T15:09:40;10.13;;;5.47;;
37859;SDS011;23698;52.014;5.190;2023-05-07T15:12:27;11.18;;;5.70;;
37859;SDS011;23698;52.014;5.190;2023-05-07T15:15:13;9.25;;;5.78;;
37859;SDS011;23698;52.014;5.190;2023-05-07T15:18:01;9.90;;;5.47;;
37859;SDS011;23698;52.014;5.190;2023-05-07T15:20:48;8.70;;;5.60;;
37859;SDS011;23698;52.014;5.190;2023-05-07T15:23:35;8.45;;;5.30;;
37859;SDS011;23698;52.014;5.190;2023-05-07T15:26:21;8.68;;;4.80;;
37859;SDS011;23698;52.014;5.190;2023-05-07T15:29:08;9.73;;;6.30;;
37859;SDS011;23698;52.014;5.190;2023-05-07T15:31:55;9.82;;;5.60;;
37859;SDS011;23698;52.014;5.190;2023-05-07T15:34:45;9.48;;;5.47;;
37859;SDS011;23698;52.014;5.190;2023-05-07T15:37:31;7.80;;;4.75;;
37859;SDS011;23698;52.014;5.190;2023-05-07T15:40:17;8.02;;;3.80;;
37859;SDS011;23698;52.014;5.190;2023-05-07T15:43:04;5.55;;;4.00;;
37859;SDS011;23698;52.014;5.190;2023-05-07T15:45:50;4.63;;;3.20;;
37859;SDS011;23698;52.014;5.190;2023-05-07T15:48:38;5.07;;;3.38;;
37859;SDS011;23698;52.014;5.190;2023-05-07T15:51:26;5.68;;;2.80;;
37859;SDS011;23698;52.014;5.190;2023-05-07T15:54:14;4.93;;;3.25;;
37859;SDS011;23698;52.014;5.190;2023-05-07T15:57:07;4.05;;;3.25;;
37859;SDS011;23698;52.014;5.190;2023-05-07T15:59:58;7.03;;;4.05;;
37859;SDS011;23698;52.014;5.190;2023-05-07T16:02:45;6.68;;;3.30;;
37859;SDS011;23698;52.014;5.190;2023-05-07T16:05:36;6.20;;;3.33;;
37859;SDS011;23698;52.014;5.190;2023-05-07T16:08:25;6.13;;;3.38;;
37859;SDS011;23698;52.014;5.190;2023-05-07T16:11:11;4.25;;;3.00;;
37859;SDS011;23698;52.014;5.190;2023-05-07T16:13:58;6.25;;;3.78;;
37859;SDS011;23698;52.014;5.190;2023-05-07T16:16:45;6.07;;;3.72;;
37859;SDS011;23698;52.014;5.190;2023-05-07T16:19:32;4.75;;;3.00;;
37859;SDS011;23698;52.014;5.190;2023-05-07T16:22:18;4.88;;;2.63;;
37859;SDS011;23698;52.014;5.190;2023-05-07T16:25:06;7.47;;;3.60;;
37859;SDS011;23698;52.014;5.190;2023-05-07T16:27:54;5.77;;;3.20;;
37859;SDS011;23698;52.014;5.190;2023-05-07T16:30:41;5.78;;;3.33;;
37859;SDS011;23698;52.014;5.190;2023-05-07T16:33:28;5.15;;;2.97;;
37859;SDS011;23698;52.014;5.190;2023-05-07T16:36:14;5.60;;;2.70;;
37859;SDS011;23698;52.014;5.190;2023-05-07T16:39:01;5.68;;;2.97;;
37859;SDS011;23698;52.014;5.190;2023-05-07T16:41:50;5.70;;;3.33;;
37859;SDS011;23698;52.014;5.190;2023-05-07T16:44:37;3.58;;;2.72;;
37859;SDS011;23698;52.014;5.190;2023-05-07T16:47:23;4.45;;;3.25;;
37859;SDS011;23698;52.014;5.190;2023-05-07T16:50:11;3.60;;;2.65;;
37859;SDS011;23698;52.014;5.190;2023-05-07T16:52:58;3.65;;;2.53;;
37859;SDS011;23698;52.014;5.190;2023-05-07T16:55:46;4.93;;;2.20;;
37859;SDS011;23698;52.014;5.190;2023-05-07T16:58:34;2.95;;;2.35;;
37859;SDS011;23698;52.014;5.190;2023-05-07T17:01:22;4.00;;;2.45;;
37859;SDS011;23698;52.014;5.190;2023-05-07T17:04:08;4.05;;;2.30;;
37859;SDS011;23698;52.014;5.190;2023-05-07T17:06:54;2.42;;;1.80;;
37859;SDS011;23698;52.014;5.190;2023-05-07T17:09:42;2.13;;;1.92;;
37859;SDS011;23698;52.014;5.190;2023-05-07T17:12:29;2.17;;;1.67;;
37859;SDS011;23698;52.014;5.190;2023-05-07T18:04:14;4.63;;;2.13;;
37859;SDS011;23698;52.014;5.190;2023-05-07T18:10:31;4.28;;;1.90;;
37859;SDS011;23698;52.014;5.190;2023-05-07T18:14:09;3.40;;;1.80;;
37859;SDS011;23698;52.014;5.190;2023-05-07T18:17:18;4.32;;;2.00;;
37859;SDS011;23698;52.014;5.190;2023-05-07T18:25:06;4.63;;;2.78;;
37859;SDS011;23698;52.014;5.190;2023-05-07T18:28:21;4.75;;;2.10;;
37859;SDS011;23698;52.014;5.190;2023-05-07T18:32:02;2.78;;;2.25;;
37859;SDS011;23698;52.014;5.190;2023-05-07T18:35:53;3.85;;;2.63;;
37859;SDS011;23698;52.014;5.190;2023-05-07T18:39:29;4.32;;;2.70;;
37859;SDS011;23698;52.014;5.190;2023-05-07T18:58:06;5.10;;;3.50;;
37859;SDS011;23698;52.014;5.190;2023-05-07T19:10:29;5.00;;;4.20;;
37859;SDS011;23698;52.014;5.190;2023-05-07T19:13:32;4.95;;;4.03;;
37859;SDS011;23698;52.014;5.190;2023-05-07T19:20:06;5.50;;;4.80;;
37859;SDS011;23698;52.014;5.190;2023-05-07T19:22:55;6.10;;;4.05;;
37859;SDS011;23698;52.014;5.190;2023-05-07T19:25:42;8.23;;;4.75;;
37859;SDS011;23698;52.014;5.190;2023-05-07T19:28:29;5.22;;;4.65;;
37859;SDS011;23698;52.014;5.190;2023-05-07T19:31:18;5.97;;;3.75;;
37859;SDS011;23698;52.014;5.190;2023-05-07T19:34:06;5.43;;;4.55;;
37859;SDS011;23698;52.014;5.190;2023-05-07T19:36:52;4.70;;;4.22;;
37859;SDS011;23698;52.014;5.190;2023-05-07T19:39:38;7.07;;;4.25;;
37859;SDS011;23698;52.014;5.190;2023-05-07T19:49:19;5.05;;;4.55;;
37859;SDS011;23698;52.014;5.190;2023-05-07T19:52:06;5.90;;;4.40;;
37859;SDS011;23698;52.014;5.190;2023-05-07T19:54:52;5.53;;;4.90;;
37859;SDS011;23698;52.014;5.190;2023-05-07T19:57:39;5.70;;;4.93;;
37859;SDS011;23698;52.014;5.190;2023-05-07T20:00:26;8.90;;;5.90;;
37859;SDS011;23698;52.014;5.190;2023-05-07T20:03:16;9.13;;;7.13;;
37859;SDS011;23698;52.014;5.190;2023-05-07T20:06:04;11.10;;;6.95;;
37859;SDS011;23698;52.014;5.190;2023-05-07T20:08:51;12.20;;;8.18;;
37859;SDS011;23698;52.014;5.190;2023-05-07T20:11:37;11.40;;;8.27;;
37859;SDS011;23698;52.014;5.190;2023-05-07T20:14:24;11.73;;;8.55;;
37859;SDS011;23698;52.014;5.190;2023-05-07T20:17:11;11.48;;;6.40;;
37859;SDS011;23698;52.014;5.190;2023-05-07T20:19:57;6.38;;;5.75;;
37859;SDS011;23698;52.014;5.190;2023-05-07T20:22:45;7.90;;;6.68;;
37859;SDS011;23698;52.014;5.190;2023-05-07T20:25:31;10.57;;;8.02;;
37859;SDS011;23698;52.014;5.190;2023-05-07T20:28:18;9.02;;;6.95;;
37859;SDS011;23698;52.014;5.190;2023-05-07T20:31:04;9.02;;;7.18;;
37859;SDS011;23698;52.014;5.190;2023-05-07T20:33:51;9.32;;;7.60;;
37859;SDS011;23698;52.014;5.190;2023-05-07T20:36:37;8.70;;;7.47;;
37859;SDS011;23698;52.014;5.190;2023-05-07T20:39:25;8.13;;;6.97;;
37859;SDS011;23698;52.014;5.190;2023-05-07T20:42:11;9.82;;;7.00;;
37859;SDS011;23698;52.014;5.190;2023-05-07T20:44:58;10.20;;;7.13;;
37859;SDS011;23698;52.014;5.190;2023-05-07T20:47:47;9.18;;;7.32;;
37859;SDS011;23698;52.014;5.190;2023-05-07T20:50:33;8.23;;;6.32;;
37859;SDS011;23698;52.014;5.190;2023-05-07T20:53:19;8.20;;;7.05;;
37859;SDS011;23698;52.014;5.190;2023-05-07T20:56:07;10.20;;;7.63;;
37859;SDS011;23698;52.014;5.190;2023-05-07T20:58:53;10.43;;;7.53;;
37859;SDS011;23698;52.014;5.190;2023-05-07T21:01:39;8.55;;;7.38;;
37859;SDS011;23698;52.014;5.190;2023-05-07T21:04:26;9.10;;;7.75;;
37859;SDS011;23698;52.014;5.190;2023-05-07T21:07:13;8.30;;;7.50;;
37859;SDS011;23698;52.014;5.190;2023-05-07T21:09:59;8.75;;;7.10;;
37859;SDS011;23698;52.014;5.190;2023-05-07T21:12:47;10.43;;;8.27;;
37859;SDS011;23698;52.014;5.190;2023-05-07T21:15:33;10.25;;;8.23;;
37859;SDS011;23698;52.014;5.190;2023-05-07T21:18:19;9.80;;;7.35;;
37859;SDS011;23698;52.014;5.190;2023-05-07T21:21:06;8.57;;;7.55;;
37859;SDS011;23698;52.014;5.190;2023-05-07T21:23:53;8.27;;;7.38;;
37859;SDS011;23698;52.014;5.190;2023-05-07T21:26:39;8.77;;;7.53;;
37859;SDS011;23698;52.014;5.190;2023-05-07T21:29:27;11.60;;;9.77;;
37859;SDS011;23698;52.014;5.190;2023-05-07T21:32:13;11.23;;;9.10;;
37859;SDS011;23698;52.014;5.190;2023-05-07T21:34:59;11.00;;;9.88;;
37859;SDS011;23698;52.014;5.190;2023-05-07T21:37:46;12.75;;;10.60;;
37859;SDS011;23698;52.014;5.190;2023-05-07T21:40:32;12.10;;;10.85;;
37859;SDS011;23698;52.014;5.190;2023-05-07T21:43:19;11.65;;;10.43;;
37859;SDS011;23698;52.014;5.190;2023-05-07T21:46:07;13.05;;;11.15;;
37859;SDS011;23698;52.014;5.190;2023-05-07T21:48:53;14.40;;;10.50;;
37859;SDS011;23698;52.014;5.190;2023-05-07T21:51:39;13.57;;;11.35;;
37859;SDS011;23698;52.014;5.190;2023-05-07T21:54:26;12.18;;;10.20;;
37859;SDS011;23698;52.014;5.190;2023-05-07T21:57:13;14.10;;;11.20;;
37859;SDS011;23698;52.014;5.190;2023-05-07T21:59:59;14.15;;;11.77;;
37859;SDS011;23698;52.014;5.190;2023-05-07T22:02:47;17.00;;;10.70;;
37859;SDS011;23698;52.014;5.190;2023-05-07T22:05:33;11.82;;;9.88;;
37859;SDS011;23698;52.014;5.190;2023-05-07T22:08:20;13.65;;;10.48;;
37859;SDS011;23698;52.014;5.190;2023-05-07T22:11:07;11.70;;;10.43;;
37859;SDS011;23698;52.014;5.190;2023-05-07T22:13:53;10.77;;;9.68;;
